createdAt,value
2023-02-05T00:00:49.334Z,7.92
2023-02-05T00:03:39.062Z,7.86
2023-02-05T00:06:07.367Z,7.80
2023-02-05T00:08:35.785Z,7.75
2023-02-05T00:11:09.501Z,7.69
2023-02-05T00:14:11.031Z,7.64
2023-02-05T00:16:42.603Z,7.59
2023-02-05T00:19:11.149Z,7.53
2023-02-05T00:21:40.100Z,7.49
2023-02-05T00:24:09.093Z,7.45
2023-02-05T00:26:38.779Z,7.41
2023-02-05T00:29:07.948Z,7.37
2023-02-05T00:31:36.700Z,7.34
2023-02-05T00:34:08.696Z,7.30
2023-02-05T00:36:43.170Z,7.27
2023-02-05T00:39:14.912Z,7.26
2023-02-05T00:41:43.437Z,7.27
2023-02-05T00:44:11.994Z,7.28
2023-02-05T00:46:40.446Z,7.30
2023-02-05T00:49:09.216Z,7.32
2023-02-05T00:51:37.735Z,7.33
2023-02-05T00:54:06.322Z,7.35
2023-02-05T00:56:35.219Z,7.37
2023-02-05T00:59:03.898Z,7.40
2023-02-05T01:01:31.938Z,7.42
2023-02-05T01:03:59.860Z,7.41
2023-02-05T01:06:31.608Z,7.39
2023-02-05T01:08:59.881Z,7.35
2023-02-05T01:11:28.458Z,7.29
2023-02-05T01:13:56.913Z,7.21
2023-02-05T01:16:25.224Z,7.14
2023-02-05T01:18:56.480Z,7.08
2023-02-05T01:21:25.228Z,7.02
2023-02-05T01:23:56.600Z,6.94
2023-02-05T01:26:25.281Z,6.88
2023-02-05T01:28:53.724Z,6.80
2023-02-05T01:31:22.590Z,6.73
2023-02-05T01:33:52.136Z,6.65
2023-02-05T01:36:20.478Z,6.60
2023-02-05T01:38:49.043Z,6.54
2023-02-05T01:41:17.452Z,6.49
2023-02-05T01:44:06.123Z,6.43
2023-02-05T01:46:36.227Z,6.37
2023-02-05T01:49:06.343Z,6.30
2023-02-05T01:51:37.409Z,6.23
2023-02-05T01:54:07.390Z,6.18
2023-02-05T01:56:43.096Z,6.13
2023-02-05T01:59:19.322Z,6.07
2023-02-05T02:01:48.211Z,6.01
2023-02-05T02:04:37.599Z,5.94
2023-02-05T02:07:09.698Z,5.86
2023-02-05T02:09:40.870Z,5.76
2023-02-05T02:12:15.760Z,5.70
2023-02-05T02:14:49.797Z,5.65
2023-02-05T02:17:19.030Z,5.61
2023-02-05T02:20:09.391Z,5.55
2023-02-05T02:22:56.198Z,5.48
2023-02-05T02:25:24.385Z,5.41
2023-02-05T02:28:11.262Z,5.36
2023-02-05T02:30:41.551Z,5.30
2023-02-05T02:33:32.972Z,5.23
2023-02-05T02:36:05.917Z,5.16
2023-02-05T02:38:42.224Z,5.11
2023-02-05T02:41:29.547Z,5.04
2023-02-05T02:43:59.385Z,4.97
2023-02-05T02:46:35.125Z,4.91
2023-02-05T02:49:07.021Z,4.83
2023-02-05T02:51:39.067Z,4.79
2023-02-05T02:54:10.542Z,4.75
2023-02-05T02:56:41.666Z,4.73
2023-02-05T02:59:15.453Z,4.73
2023-02-05T03:01:53.653Z,4.72
2023-02-05T03:04:29.574Z,4.71
2023-02-05T03:07:11.661Z,4.68
2023-02-05T03:09:47.267Z,4.63
2023-02-05T03:12:15.493Z,4.58
2023-02-05T03:14:43.758Z,4.53
2023-02-05T03:17:18.705Z,4.47
2023-02-05T03:19:48.972Z,4.44
2023-02-05T03:22:17.047Z,4.44
2023-02-05T03:24:45.328Z,4.45
2023-02-05T03:27:13.486Z,4.44
2023-02-05T03:29:45.203Z,4.47
2023-02-05T03:32:55.354Z,4.46
2023-02-05T03:35:29.404Z,4.39
2023-02-05T03:38:28.243Z,4.34
2023-02-05T03:41:14.657Z,4.28
2023-02-05T03:44:02.370Z,4.24
2023-02-05T03:46:55.427Z,4.21
2023-02-05T03:49:43.613Z,4.12
2023-02-05T03:52:18.908Z,4.04
2023-02-05T03:55:08.797Z,3.98
2023-02-05T03:58:01.019Z,3.95
2023-02-05T04:00:29.593Z,3.90
2023-02-05T04:02:58.005Z,3.83
2023-02-05T04:05:25.927Z,3.78
2023-02-05T04:07:53.939Z,3.75
2023-02-05T04:10:22.129Z,3.73
2023-02-05T04:12:50.165Z,3.70
2023-02-05T04:15:18.332Z,3.65
2023-02-05T04:17:46.407Z,3.60
2023-02-05T04:20:14.948Z,3.52
2023-02-05T04:22:42.841Z,3.44
2023-02-05T04:25:10.772Z,3.39
2023-02-05T04:27:38.876Z,3.37
2023-02-05T04:30:07.303Z,3.35
2023-02-05T04:32:35.153Z,3.30
2023-02-05T04:35:03.321Z,3.24
2023-02-05T04:37:31.235Z,3.17
2023-02-05T04:39:59.167Z,3.12
2023-02-05T04:42:27.015Z,3.07
2023-02-05T04:44:55.139Z,3.04
2023-02-05T04:47:23.040Z,3.01
2023-02-05T04:49:51.182Z,2.98
2023-02-05T04:52:19.033Z,2.95
2023-02-05T04:54:47.079Z,2.89
2023-02-05T04:57:15.318Z,2.85
2023-02-05T04:59:43.327Z,2.79
2023-02-05T05:02:11.291Z,2.77
2023-02-05T05:04:41.086Z,2.74
2023-02-05T05:07:10.371Z,2.71
2023-02-05T05:09:38.330Z,2.69
2023-02-05T05:12:06.500Z,2.67
2023-02-05T05:14:34.866Z,2.64
2023-02-05T05:17:02.817Z,2.60
2023-02-05T05:19:30.673Z,2.52
2023-02-05T05:21:59.515Z,2.47
2023-02-05T05:24:27.418Z,2.41
2023-02-05T05:26:55.339Z,2.36
2023-02-05T05:29:23.130Z,2.31
2023-02-05T05:31:54.479Z,2.25
2023-02-05T05:34:22.385Z,2.21
2023-02-05T05:36:50.421Z,2.18
2023-02-05T05:39:38.529Z,2.17
2023-02-05T05:42:25.545Z,2.17
2023-02-05T05:44:53.593Z,2.21
2023-02-05T05:47:23.046Z,2.23
2023-02-05T05:49:50.937Z,2.26
2023-02-05T05:52:19.028Z,2.30
2023-02-05T05:54:47.044Z,2.32
2023-02-05T05:57:15.349Z,2.33
2023-02-05T05:59:43.607Z,2.33
2023-02-05T06:02:11.542Z,2.32
2023-02-05T06:04:39.483Z,2.32
2023-02-05T06:07:07.759Z,2.32
2023-02-05T06:09:35.718Z,2.31
2023-02-05T06:12:03.830Z,2.29
2023-02-05T06:14:31.765Z,2.25
2023-02-05T06:16:59.809Z,2.24
2023-02-05T06:19:27.660Z,2.22
2023-02-05T06:21:55.554Z,2.21
2023-02-05T06:24:23.399Z,2.21
2023-02-05T06:26:51.333Z,2.18
2023-02-05T06:29:19.148Z,2.16
2023-02-05T06:31:47.243Z,2.13
2023-02-05T06:34:15.349Z,2.11
2023-02-05T06:36:43.234Z,2.09
2023-02-05T06:39:11.125Z,2.07
2023-02-05T06:41:39.028Z,2.05
2023-02-05T06:44:06.870Z,2.04
2023-02-05T06:46:34.971Z,2.04
2023-02-05T06:49:03.189Z,2.04
2023-02-05T06:51:31.200Z,2.01
2023-02-05T06:54:00.628Z,1.99
2023-02-05T06:56:28.694Z,1.94
2023-02-05T06:58:56.952Z,1.91
2023-02-05T07:01:25.051Z,1.88
2023-02-05T07:03:56.198Z,1.86
2023-02-05T07:06:25.421Z,1.83
2023-02-05T07:08:55.372Z,1.81
2023-02-05T07:11:24.152Z,1.79
2023-02-05T07:13:52.365Z,1.77
2023-02-05T07:16:20.341Z,1.72
2023-02-05T07:18:48.262Z,1.66
2023-02-05T07:21:17.368Z,1.64
2023-02-05T07:23:45.437Z,1.63
2023-02-05T07:26:15.753Z,1.61
2023-02-05T07:28:44.771Z,1.56
2023-02-05T07:31:15.872Z,1.49
2023-02-05T07:33:45.461Z,1.43
2023-02-05T07:36:16.654Z,1.39
2023-02-05T07:38:46.644Z,1.36
2023-02-05T07:41:16.588Z,1.33
2023-02-05T07:43:44.674Z,1.31
2023-02-05T07:46:15.011Z,1.31
2023-02-05T07:48:43.014Z,1.31
2023-02-05T07:51:22.418Z,1.29
2023-02-05T07:53:52.282Z,1.30
2023-02-05T07:56:21.836Z,1.33
2023-02-05T07:58:49.950Z,1.33
2023-02-05T08:01:18.349Z,1.33
2023-02-05T08:03:46.335Z,1.34
2023-02-05T08:06:15.880Z,1.38
2023-02-05T08:08:44.164Z,1.42
2023-02-05T08:11:16.044Z,1.46
2023-02-05T08:13:46.093Z,1.51
2023-02-05T08:16:16.122Z,1.56
2023-02-05T08:18:49.476Z,1.62
2023-02-05T08:21:19.202Z,1.66
2023-02-05T08:23:48.762Z,1.68
2023-02-05T08:26:18.196Z,1.71
2023-02-05T08:28:46.617Z,1.75
2023-02-05T08:31:18.312Z,1.79
2023-02-05T08:33:47.952Z,1.83
2023-02-05T08:36:15.930Z,1.86
2023-02-05T08:38:44.024Z,1.89
2023-02-05T08:41:15.644Z,1.92
2023-02-05T08:43:46.254Z,1.96
2023-02-05T08:46:18.707Z,2.01
2023-02-05T08:48:49.108Z,2.06
2023-02-05T08:51:17.743Z,2.11
2023-02-05T08:53:46.307Z,2.16
2023-02-05T08:56:16.058Z,2.20
2023-02-05T08:58:44.185Z,2.24
2023-02-05T09:01:15.582Z,2.26
2023-02-05T09:03:44.612Z,2.29
2023-02-05T09:06:15.727Z,2.29
2023-02-05T09:08:45.600Z,2.31
2023-02-05T09:11:13.759Z,2.34
2023-02-05T09:13:42.064Z,2.40
2023-02-05T09:16:11.495Z,2.45
2023-02-05T09:18:39.569Z,2.53
2023-02-05T09:21:09.030Z,2.60
2023-02-05T09:23:37.630Z,2.69
2023-02-05T09:26:07.108Z,2.79
2023-02-05T09:28:36.211Z,2.87
2023-02-05T09:31:12.040Z,2.96
2023-02-05T09:33:40.590Z,3.03
2023-02-05T09:36:13.789Z,3.10
2023-02-05T09:38:41.808Z,3.19
2023-02-05T09:41:32.385Z,3.26
2023-02-05T09:44:07.613Z,3.32
2023-02-05T09:46:50.953Z,3.39
2023-02-05T09:49:24.713Z,3.46
2023-02-05T09:52:02.058Z,3.54
2023-02-05T09:54:41.956Z,3.64
2023-02-05T09:57:16.565Z,3.74
2023-02-05T09:59:46.901Z,3.83
2023-02-05T10:02:26.781Z,3.95
2023-02-05T10:04:55.301Z,4.04
2023-02-05T10:07:23.107Z,4.13
2023-02-05T10:10:16.140Z,4.21
2023-02-05T10:13:08.846Z,4.31
2023-02-05T10:16:02.782Z,4.41
2023-02-05T10:18:43.968Z,4.51
2023-02-05T10:21:40.117Z,4.61
2023-02-05T10:24:24.550Z,4.72
2023-02-05T10:27:00.293Z,4.80
2023-02-05T10:30:00.542Z,4.86
2023-02-05T10:32:41.985Z,4.93
2023-02-05T10:35:44.400Z,4.97
2023-02-05T10:38:21.143Z,5.02
2023-02-05T10:40:53.084Z,5.08
2023-02-05T10:43:35.834Z,5.16
2023-02-05T10:46:05.427Z,5.25
2023-02-05T10:48:42.767Z,5.32
2023-02-05T10:51:15.717Z,5.40
2023-02-05T10:53:44.053Z,5.45
2023-02-05T10:56:17.804Z,5.48
2023-02-05T10:58:53.147Z,5.51
2023-02-05T11:01:26.244Z,5.53
2023-02-05T11:04:08.152Z,5.59
2023-02-05T11:06:40.894Z,5.67
2023-02-05T11:09:24.132Z,5.77
2023-02-05T11:11:54.632Z,5.92
2023-02-05T11:14:49.467Z,6.08
2023-02-05T11:17:17.247Z,6.22
2023-02-05T11:19:56.961Z,6.30
2023-02-05T11:22:31.530Z,6.36
2023-02-05T11:25:16.993Z,6.42
2023-02-05T11:28:02.315Z,6.45
2023-02-05T11:33:22.096Z,6.47
2023-02-05T11:36:16.577Z,6.46
2023-02-05T11:38:57.740Z,6.47
2023-02-05T11:41:33.132Z,6.51
2023-02-05T11:44:03.206Z,6.54
2023-02-05T11:46:36.842Z,6.54
2023-02-05T11:49:05.245Z,6.52
2023-02-05T11:51:36.199Z,6.50
2023-02-05T11:54:14.836Z,6.51
2023-02-05T11:56:42.946Z,6.57
2023-02-05T11:59:23.199Z,6.57
2023-02-05T12:01:51.108Z,6.56
2023-02-05T12:04:21.501Z,6.53
2023-02-05T12:06:56.159Z,6.52
2023-02-05T12:09:25.994Z,6.55
2023-02-05T12:12:25.830Z,6.61
2023-02-05T12:15:17.029Z,6.69
2023-02-05T12:18:24.499Z,6.74
2023-02-05T12:21:10.900Z,6.78
2023-02-05T12:23:57.608Z,6.80
2023-02-05T12:26:36.637Z,6.82
2023-02-05T12:29:16.285Z,6.87
2023-02-05T12:32:05.061Z,6.92
2023-02-05T12:34:51.921Z,6.91
2023-02-05T12:37:26.016Z,6.90
2023-02-05T12:40:15.116Z,6.89
2023-02-05T12:42:53.436Z,6.87
2023-02-05T12:45:43.882Z,6.86
2023-02-05T12:48:49.310Z,6.87
2023-02-05T12:51:47.748Z,6.90
2023-02-05T12:54:31.025Z,7.01
2023-02-05T12:57:05.484Z,7.21
2023-02-05T12:59:42.964Z,7.39
2023-02-05T13:02:23.291Z,7.52
2023-02-05T13:05:21.910Z,7.60
2023-02-05T13:08:18.480Z,7.64
2023-02-05T13:10:54.952Z,7.68
2023-02-05T13:13:30.875Z,7.69
2023-02-05T13:16:14.508Z,7.67
2023-02-05T13:19:00.894Z,7.61
2023-02-05T13:21:48.354Z,7.54
2023-02-05T13:24:47.779Z,7.48
2023-02-05T13:28:02.582Z,7.45
2023-02-05T13:30:39.307Z,7.41
2023-02-05T13:33:08.666Z,7.42
2023-02-05T13:35:58.275Z,7.45
2023-02-05T13:38:38.373Z,7.50
2023-02-05T13:41:37.495Z,7.53
2023-02-05T13:44:19.752Z,7.59
2023-02-05T13:46:57.213Z,7.61
2023-02-05T13:49:59.263Z,7.65
2023-02-05T13:53:04.089Z,7.73
2023-02-05T13:56:06.175Z,7.80
2023-02-05T13:58:50.495Z,7.83
2023-02-05T14:01:26.500Z,7.85
2023-02-05T14:04:05.548Z,7.84
2023-02-05T14:06:39.195Z,7.79
2023-02-05T14:09:11.142Z,7.80
2023-02-05T14:11:58.865Z,7.92
2023-02-05T14:14:37.164Z,8.01
2023-02-05T14:17:32.927Z,8.05
2023-02-05T14:20:01.339Z,8.06
2023-02-05T14:22:47.610Z,8.09
2023-02-05T14:25:42.811Z,8.09
2023-02-05T14:28:16.832Z,8.02
2023-02-05T14:30:51.196Z,7.95
2023-02-05T14:33:31.339Z,7.94
2023-02-05T14:36:25.375Z,7.95
2023-02-05T14:38:55.755Z,7.97
2023-02-05T14:41:27.685Z,7.97
2023-02-05T14:44:03.180Z,7.96
2023-02-05T14:46:43.206Z,7.99
2023-02-05T14:49:26.232Z,7.99
2023-02-05T14:52:00.651Z,7.96
2023-02-05T14:54:42.341Z,7.91
2023-02-05T14:57:12.999Z,7.85
2023-02-05T14:59:50.876Z,7.80
2023-02-05T15:02:57.001Z,7.76
2023-02-05T15:05:30.819Z,7.76
2023-02-05T15:08:13.658Z,7.74
2023-02-05T15:10:48.372Z,7.73
2023-02-05T15:13:20.686Z,7.75
2023-02-05T15:16:15.623Z,7.74
2023-02-05T15:18:57.947Z,7.68
2023-02-05T15:21:25.784Z,7.62
2023-02-05T15:23:59.441Z,7.61
2023-02-05T15:26:39.412Z,7.60
2023-02-05T15:29:14.293Z,7.58
2023-02-05T15:31:47.863Z,7.55
2023-02-05T15:34:43.386Z,7.50
2023-02-05T15:37:11.314Z,7.44
2023-02-05T15:39:53.054Z,7.38
2023-02-05T15:42:35.125Z,7.32
2023-02-05T15:45:25.662Z,7.26
2023-02-05T15:48:25.885Z,7.21
2023-02-05T15:50:58.675Z,7.17
2023-02-05T15:53:44.014Z,7.13
2023-02-05T15:56:36.235Z,7.12
2023-02-05T15:59:10.704Z,7.13
2023-02-05T16:01:46.961Z,7.13
2023-02-05T16:04:40.270Z,7.15
2023-02-05T16:07:22.013Z,7.15
2023-02-05T16:10:11.989Z,7.13
2023-02-05T16:12:39.981Z,7.10
2023-02-05T16:15:13.995Z,7.09
2023-02-05T16:17:51.344Z,7.06
2023-02-05T16:20:29.948Z,7.03
2023-02-05T16:23:01.799Z,6.97
2023-02-05T16:25:45.113Z,6.90
2023-02-05T16:28:26.514Z,6.83
2023-02-05T16:30:57.163Z,6.77
2023-02-05T16:33:41.160Z,6.69
2023-02-05T16:36:21.076Z,6.61
2023-02-05T16:38:55.550Z,6.53
2023-02-05T16:41:30.707Z,6.44
2023-02-05T16:44:03.890Z,6.36
2023-02-05T16:46:33.737Z,6.29
2023-02-05T16:49:25.801Z,6.20
2023-02-05T16:51:58.216Z,6.13
2023-02-05T16:54:31.161Z,6.08
2023-02-05T16:57:13.807Z,6.02
2023-02-05T16:59:58.536Z,5.96
2023-02-05T17:02:39.491Z,5.91
2023-02-05T17:05:34.234Z,5.87
2023-02-05T17:08:04.217Z,5.82
2023-02-05T17:10:47.771Z,5.76
2023-02-05T17:13:34.228Z,5.72
2023-02-05T17:16:24.696Z,5.67
2023-02-05T17:19:04.849Z,5.61
2023-02-05T17:21:34.986Z,5.55
2023-02-05T17:24:06.985Z,5.49
2023-02-05T17:26:40.868Z,5.44
2023-02-05T17:29:15.457Z,5.40
2023-02-05T17:31:44.794Z,5.35
2023-02-05T17:34:12.758Z,5.31
2023-02-05T17:36:40.751Z,5.26
2023-02-05T17:39:08.571Z,5.22
2023-02-05T17:41:56.022Z,5.18
2023-02-05T17:44:24.219Z,5.12
2023-02-05T17:46:54.340Z,5.05
2023-02-05T17:49:23.598Z,4.99
2023-02-05T17:51:51.725Z,4.93
2023-02-05T17:54:23.178Z,4.85
2023-02-05T17:56:53.081Z,4.76
2023-02-05T17:59:24.457Z,4.67
2023-02-05T18:01:54.925Z,4.59
2023-02-05T18:04:23.206Z,4.52
2023-02-05T18:06:51.704Z,4.47
2023-02-05T18:09:20.131Z,4.42
2023-02-05T18:11:48.048Z,4.35
2023-02-05T18:14:16.078Z,4.26
2023-02-05T18:16:44.443Z,4.18
2023-02-05T18:19:13.891Z,4.12
2023-02-05T18:21:41.846Z,4.05
2023-02-05T18:24:10.044Z,3.98
2023-02-05T18:26:38.418Z,3.90
2023-02-05T18:29:06.503Z,3.81
2023-02-05T18:31:35.350Z,3.74
2023-02-05T18:34:03.278Z,3.67
2023-02-05T18:36:31.243Z,3.58
2023-02-05T18:38:59.302Z,3.45
2023-02-05T18:41:28.785Z,3.34
2023-02-05T18:43:57.887Z,3.28
2023-02-05T18:46:26.138Z,3.26
2023-02-05T18:48:54.905Z,3.24
2023-02-05T18:51:23.796Z,3.20
2023-02-05T18:53:52.383Z,3.13
2023-02-05T18:56:22.959Z,3.04
2023-02-05T18:58:59.272Z,2.94
2023-02-05T19:01:29.351Z,2.84
2023-02-05T19:04:02.391Z,2.79
2023-02-05T19:06:31.819Z,2.76
2023-02-05T19:09:00.644Z,2.73
2023-02-05T19:11:29.547Z,2.71
2023-02-05T19:14:03.467Z,2.69
2023-02-05T19:16:33.944Z,2.65
2023-02-05T19:19:02.942Z,2.61
2023-02-05T19:21:32.049Z,2.58
2023-02-05T19:24:05.625Z,2.56
2023-02-05T19:26:35.592Z,2.53
2023-02-05T19:29:07.107Z,2.49
2023-02-05T19:31:36.807Z,2.43
2023-02-05T19:34:05.451Z,2.37
2023-02-05T19:36:34.508Z,2.31
2023-02-05T19:39:05.548Z,2.25
2023-02-05T19:41:35.620Z,2.21
2023-02-05T19:44:07.293Z,2.19
2023-02-05T19:46:38.902Z,2.17
2023-02-05T19:49:13.391Z,2.16
2023-02-05T19:51:46.032Z,2.14
2023-02-05T19:54:15.110Z,2.09
2023-02-05T19:56:44.415Z,2.05
2023-02-05T19:59:13.015Z,2.03
2023-02-05T20:01:44.011Z,2.00
2023-02-05T20:04:17.487Z,1.97
2023-02-05T20:06:47.327Z,1.93
2023-02-05T20:09:17.355Z,1.80
2023-02-05T20:11:51.070Z,1.69
2023-02-05T20:14:20.210Z,1.64
2023-02-05T20:16:48.799Z,1.61
2023-02-05T20:19:18.124Z,1.58
2023-02-05T20:21:47.462Z,1.55
2023-02-05T20:24:16.644Z,1.49
2023-02-05T20:26:48.625Z,1.39
2023-02-05T20:29:35.841Z,1.33
2023-02-05T20:32:04.467Z,1.31
2023-02-05T20:34:35.946Z,1.30
2023-02-05T20:37:07.190Z,1.30
2023-02-05T20:39:39.722Z,1.27
2023-02-05T20:42:10.465Z,1.26
2023-02-05T20:44:38.314Z,1.24
2023-02-05T20:47:09.830Z,1.21
2023-02-05T20:49:40.505Z,1.13
2023-02-05T20:52:09.793Z,1.10
2023-02-05T20:54:37.721Z,1.08
2023-02-05T20:57:05.788Z,1.08
2023-02-05T20:59:33.790Z,1.07
2023-02-05T21:02:02.919Z,1.02
2023-02-05T21:04:31.538Z,0.99
2023-02-05T21:06:59.737Z,0.95
2023-02-05T21:09:27.709Z,0.94
2023-02-05T21:11:55.876Z,0.92
2023-02-05T21:14:24.200Z,0.90
2023-02-05T21:16:52.501Z,0.86
2023-02-05T21:19:20.517Z,0.77
2023-02-05T21:21:50.000Z,0.72
2023-02-05T21:24:20.874Z,0.71
2023-02-05T21:26:50.017Z,0.71
2023-02-05T21:29:20.662Z,0.72
2023-02-05T21:31:53.125Z,0.73
2023-02-05T21:34:25.072Z,0.74
2023-02-05T21:36:55.203Z,0.75
2023-02-05T21:39:23.455Z,0.74
2023-02-05T21:41:53.329Z,0.71
2023-02-05T21:44:21.789Z,0.67
2023-02-05T21:46:49.813Z,0.60
2023-02-05T21:49:17.896Z,0.54
2023-02-05T21:51:48.086Z,0.51
2023-02-05T21:54:16.302Z,0.48
2023-02-05T21:56:45.084Z,0.45
2023-02-05T21:59:13.279Z,0.44
2023-02-05T22:01:42.384Z,0.44
2023-02-05T22:04:15.958Z,0.43
2023-02-05T22:06:44.452Z,0.42
2023-02-05T22:09:15.160Z,0.41
2023-02-05T22:11:44.364Z,0.41
2023-02-05T22:14:12.545Z,0.41
2023-02-05T22:16:41.337Z,0.40
2023-02-05T22:19:09.709Z,0.38
2023-02-05T22:21:41.513Z,0.36
2023-02-05T22:24:15.010Z,0.30
2023-02-05T22:26:43.781Z,0.26
2023-02-05T22:29:14.486Z,0.21
2023-02-05T22:31:42.811Z,0.18
2023-02-05T22:34:12.563Z,0.09
2023-02-05T22:36:40.783Z,0.01
2023-02-05T22:39:09.017Z,-0.07
2023-02-05T22:41:39.986Z,-0.13
2023-02-05T22:44:09.686Z,-0.15
2023-02-05T22:46:41.148Z,-0.20
2023-02-05T22:49:11.421Z,-0.21
2023-02-05T22:51:40.426Z,-0.22
2023-02-05T22:54:11.205Z,-0.19
2023-02-05T22:56:39.542Z,-0.17
2023-02-05T22:59:08.042Z,-0.15
2023-02-05T23:01:39.054Z,-0.13
2023-02-05T23:04:08.096Z,-0.14
2023-02-05T23:06:39.004Z,-0.16
2023-02-05T23:09:18.259Z,-0.19
2023-02-05T23:11:46.665Z,-0.20
2023-02-05T23:14:17.868Z,-0.21
2023-02-05T23:16:47.653Z,-0.25
2023-02-05T23:19:18.763Z,-0.29
2023-02-05T23:21:47.862Z,-0.29
2023-02-05T23:24:17.375Z,-0.28
2023-02-05T23:26:48.273Z,-0.27
2023-02-05T23:29:17.706Z,-0.28
2023-02-05T23:31:46.579Z,-0.31
2023-02-05T23:34:15.651Z,-0.33
2023-02-05T23:36:43.654Z,-0.31
2023-02-05T23:39:12.436Z,-0.31
2023-02-05T23:41:40.446Z,-0.32
2023-02-05T23:44:18.784Z,-0.33
2023-02-05T23:46:48.808Z,-0.36
2023-02-05T23:49:21.117Z,-0.39
2023-02-05T23:51:51.038Z,-0.40
2023-02-05T23:54:19.849Z,-0.44
2023-02-05T23:56:48.522Z,-0.47
2023-02-05T23:59:17.384Z,-0.48
